createdAt,value
2023-01-06T00:01:24.895Z,3.46
2023-01-06T00:03:54.436Z,3.79
2023-01-06T00:06:27.455Z,3.28
2023-01-06T00:08:55.775Z,3.59
2023-01-06T00:11:23.785Z,2.94
2023-01-06T00:13:56.197Z,2.96
2023-01-06T00:16:25.814Z,2.69
2023-01-06T00:18:58.249Z,2.64
2023-01-06T00:21:27.171Z,2.58
2023-01-06T00:23:56.248Z,2.54
2023-01-06T00:26:25.681Z,2.42
2023-01-06T00:28:54.716Z,2.52
2023-01-06T00:31:23.470Z,2.37
2023-01-06T00:33:53.294Z,2.49
2023-01-06T00:36:22.468Z,2.37
2023-01-06T00:38:51.795Z,2.42
2023-01-06T00:41:37.477Z,2.45
2023-01-06T00:44:05.797Z,2.45
2023-01-06T00:46:34.505Z,2.38
2023-01-06T00:49:06.929Z,2.36
2023-01-06T00:51:37.036Z,2.15
2023-01-06T00:54:05.571Z,2.16
2023-01-06T00:56:33.763Z,2.27
2023-01-06T00:59:04.476Z,2.10
2023-01-06T01:01:32.544Z,2.29
2023-01-06T01:04:01.152Z,2.19
2023-01-06T01:06:30.385Z,2.18
2023-01-06T01:09:00.198Z,2.40
2023-01-06T01:11:46.653Z,2.26
2023-01-06T01:14:16.817Z,2.31
2023-01-06T01:16:44.856Z,2.16
2023-01-06T01:19:14.459Z,2.25
2023-01-06T01:21:43.776Z,2.22
2023-01-06T01:24:14.915Z,2.31
2023-01-06T01:26:43.693Z,2.90
2023-01-06T01:29:13.050Z,4.00
2023-01-06T01:31:41.758Z,5.36
2023-01-06T01:34:11.743Z,5.33
2023-01-06T01:36:41.303Z,5.10
2023-01-06T01:39:12.488Z,5.00
2023-01-06T01:41:40.929Z,3.86
2023-01-06T01:44:46.404Z,3.68
2023-01-06T01:47:20.097Z,3.59
2023-01-06T01:49:52.940Z,3.31
2023-01-06T01:52:26.389Z,2.93
2023-01-06T01:54:57.616Z,2.87
2023-01-06T01:57:33.944Z,3.00
2023-01-06T02:00:05.872Z,2.89
2023-01-06T02:02:34.187Z,3.60
2023-01-06T02:05:03.612Z,3.50
2023-01-06T02:07:31.844Z,3.41
2023-01-06T02:10:10.892Z,3.34
2023-01-06T02:12:39.852Z,3.45
2023-01-06T02:15:16.824Z,3.78
2023-01-06T02:18:14.074Z,4.98
2023-01-06T02:20:57.496Z,5.74
2023-01-06T02:24:04.655Z,5.47
2023-01-06T02:27:12.754Z,4.86
2023-01-06T02:30:20.154Z,4.42
2023-01-06T02:33:02.801Z,4.67
2023-01-06T02:36:01.256Z,5.02
2023-01-06T02:38:43.791Z,4.61
2023-01-06T02:41:26.637Z,4.54
2023-01-06T02:44:04.871Z,4.60
2023-01-06T02:46:52.237Z,5.95
2023-01-06T02:49:32.179Z,5.32
2023-01-06T02:52:07.738Z,5.03
2023-01-06T02:54:44.853Z,5.01
2023-01-06T02:57:19.519Z,4.78
2023-01-06T02:59:57.533Z,4.79
2023-01-06T03:02:29.857Z,4.77
2023-01-06T03:05:03.285Z,4.70
2023-01-06T03:07:35.100Z,4.47
2023-01-06T03:10:06.244Z,4.40
2023-01-06T03:12:40.477Z,4.71
2023-01-06T03:15:10.736Z,4.75
2023-01-06T03:17:39.107Z,4.70
2023-01-06T03:20:10.152Z,4.70
2023-01-06T03:22:38.981Z,4.55
2023-01-06T03:25:08.724Z,4.34
2023-01-06T03:27:37.312Z,4.56
2023-01-06T03:30:11.986Z,4.91
2023-01-06T03:32:50.044Z,4.82
2023-01-06T03:35:35.636Z,5.43
2023-01-06T03:38:17.546Z,5.60
2023-01-06T03:40:54.529Z,5.92
2023-01-06T03:43:34.127Z,6.07
2023-01-06T03:46:23.268Z,6.06
2023-01-06T03:49:01.468Z,5.83
2023-01-06T03:51:46.444Z,5.91
2023-01-06T03:54:26.365Z,5.92
2023-01-06T03:57:03.995Z,5.77
2023-01-06T03:59:37.118Z,5.78
2023-01-06T04:02:07.288Z,5.96
2023-01-06T04:04:35.254Z,6.02
2023-01-06T04:07:04.867Z,5.76
2023-01-06T04:09:32.769Z,6.44
2023-01-06T04:12:18.022Z,6.70
2023-01-06T04:14:45.882Z,6.52
2023-01-06T04:17:13.835Z,6.66
2023-01-06T04:19:44.590Z,6.63
2023-01-06T04:22:14.201Z,6.33
2023-01-06T04:24:42.043Z,6.35
2023-01-06T04:27:09.930Z,6.28
2023-01-06T04:29:38.342Z,6.52
2023-01-06T04:32:06.585Z,6.62
2023-01-06T04:34:34.871Z,6.56
2023-01-06T04:37:02.762Z,6.41
2023-01-06T04:39:32.440Z,6.24
2023-01-06T04:42:00.619Z,6.46
2023-01-06T04:44:28.520Z,6.84
2023-01-06T04:46:56.701Z,6.26
2023-01-06T04:49:24.745Z,6.74
2023-01-06T04:51:52.763Z,6.64
2023-01-06T04:54:20.710Z,6.55
2023-01-06T04:59:35.219Z,6.95
2023-01-06T05:02:03.589Z,6.97
2023-01-06T05:04:40.016Z,6.97
2023-01-06T05:07:14.730Z,7.06
2023-01-06T05:09:42.599Z,7.75
2023-01-06T05:12:11.889Z,8.83
2023-01-06T05:14:39.839Z,8.94
2023-01-06T05:17:07.751Z,11.28
2023-01-06T05:19:36.415Z,11.58
2023-01-06T05:22:04.304Z,11.92
2023-01-06T05:24:32.200Z,11.84
2023-01-06T05:27:00.638Z,10.40
2023-01-06T05:29:29.850Z,9.99
2023-01-06T05:31:58.116Z,9.62
2023-01-06T05:34:26.172Z,9.60
2023-01-06T05:36:54.367Z,11.99
2023-01-06T05:39:22.264Z,12.02
2023-01-06T05:41:50.201Z,10.51
2023-01-06T05:44:20.678Z,9.61
2023-01-06T05:46:50.126Z,8.57
2023-01-06T05:49:18.084Z,8.61
2023-01-06T05:51:45.974Z,8.13
2023-01-06T05:54:15.183Z,8.47
2023-01-06T05:56:43.059Z,8.25
2023-01-06T05:59:10.996Z,8.07
2023-01-06T06:01:38.931Z,8.10
2023-01-06T06:04:08.257Z,8.23
2023-01-06T06:06:36.376Z,8.50
2023-01-06T06:09:06.531Z,8.90
2023-01-06T06:11:35.100Z,8.52
2023-01-06T06:14:03.002Z,8.10
2023-01-06T06:16:31.004Z,8.17
2023-01-06T06:19:00.646Z,8.18
2023-01-06T06:21:31.871Z,8.02
2023-01-06T06:24:01.128Z,8.77
2023-01-06T06:26:29.094Z,8.78
2023-01-06T06:28:57.669Z,8.87
2023-01-06T06:31:27.863Z,9.45
2023-01-06T06:33:58.578Z,9.47
2023-01-06T06:36:27.794Z,9.59
2023-01-06T06:38:57.481Z,9.50
2023-01-06T06:41:27.065Z,9.63
2023-01-06T06:43:54.981Z,9.60
2023-01-06T06:46:24.351Z,9.68
2023-01-06T06:48:52.377Z,9.34
2023-01-06T06:51:22.037Z,9.99
2023-01-06T06:53:52.757Z,10.63
2023-01-06T06:56:23.109Z,10.36
2023-01-06T06:58:51.463Z,11.15
2023-01-06T07:01:22.018Z,11.39
2023-01-06T07:03:51.057Z,13.45
2023-01-06T07:06:22.646Z,13.39
2023-01-06T07:08:50.559Z,12.69
2023-01-06T07:11:19.825Z,12.42
2023-01-06T07:13:49.412Z,11.87
2023-01-06T07:16:23.511Z,11.75
2023-01-06T07:18:51.345Z,11.38
2023-01-06T07:21:19.861Z,11.84
2023-01-06T07:23:47.683Z,11.78
2023-01-06T07:26:16.161Z,12.08
2023-01-06T07:28:44.336Z,11.30
2023-01-06T07:31:14.329Z,11.77
2023-01-06T07:33:42.294Z,12.77
2023-01-06T07:36:11.109Z,13.56
2023-01-06T07:38:38.949Z,14.75
2023-01-06T07:41:07.327Z,13.92
2023-01-06T07:43:35.683Z,14.14
2023-01-06T07:46:03.635Z,14.25
2023-01-06T07:48:33.123Z,13.78
2023-01-06T07:51:04.375Z,13.79
2023-01-06T07:53:32.498Z,14.02
2023-01-06T07:56:00.454Z,14.07
2023-01-06T07:58:28.410Z,14.39
2023-01-06T08:00:56.508Z,14.00
2023-01-06T08:03:26.916Z,13.38
2023-01-06T08:05:56.544Z,14.12
2023-01-06T08:08:26.762Z,13.79
2023-01-06T08:11:00.232Z,13.93
2023-01-06T08:13:28.569Z,13.62
2023-01-06T08:15:56.445Z,13.00
2023-01-06T08:18:24.317Z,18.46
2023-01-06T08:20:52.268Z,21.37
2023-01-06T08:23:21.497Z,21.83
2023-01-06T08:25:49.927Z,18.74
2023-01-06T08:28:21.234Z,15.06
2023-01-06T08:30:49.135Z,14.59
2023-01-06T08:33:17.582Z,15.33
2023-01-06T08:35:47.497Z,15.80
2023-01-06T08:38:15.391Z,16.28
2023-01-06T08:40:44.694Z,16.19
2023-01-06T08:43:12.616Z,15.26
2023-01-06T08:45:40.583Z,14.42
2023-01-06T08:48:08.898Z,14.46
2023-01-06T08:50:38.680Z,14.03
2023-01-06T08:53:07.890Z,13.99
2023-01-06T08:55:38.792Z,15.13
2023-01-06T08:58:09.240Z,14.53
2023-01-06T09:00:42.941Z,14.38
2023-01-06T09:03:11.482Z,13.70
2023-01-06T09:05:42.224Z,14.30
2023-01-06T09:08:10.416Z,13.91
2023-01-06T09:10:40.094Z,14.49
2023-01-06T09:13:09.363Z,14.69
2023-01-06T09:15:42.129Z,13.34
2023-01-06T09:18:10.891Z,13.46
2023-01-06T09:20:41.768Z,12.82
2023-01-06T09:23:09.684Z,13.37
2023-01-06T09:25:37.554Z,13.84
2023-01-06T09:28:05.578Z,11.83
2023-01-06T09:30:34.790Z,11.92
2023-01-06T09:33:02.790Z,12.75
2023-01-06T09:35:30.640Z,11.40
2023-01-06T09:37:58.999Z,11.69
2023-01-06T09:40:44.914Z,13.26
2023-01-06T09:43:28.215Z,13.17
2023-01-06T09:46:02.934Z,10.02
2023-01-06T09:48:39.519Z,11.29
2023-01-06T09:51:09.116Z,9.91
2023-01-06T09:53:45.573Z,9.32
2023-01-06T09:56:17.719Z,8.93
2023-01-06T09:58:53.844Z,8.32
2023-01-06T10:01:31.044Z,8.19
2023-01-06T10:04:00.369Z,9.00
2023-01-06T10:06:37.673Z,8.21
2023-01-06T10:09:25.337Z,8.36
2023-01-06T10:12:09.710Z,8.63
2023-01-06T10:14:51.059Z,8.77
2023-01-06T10:17:38.961Z,8.20
2023-01-06T10:20:30.829Z,7.87
2023-01-06T10:23:16.469Z,7.45
2023-01-06T10:25:51.819Z,7.19
2023-01-06T10:28:30.195Z,6.85
2023-01-06T10:31:03.290Z,6.39
2023-01-06T10:33:38.442Z,6.01
2023-01-06T10:36:14.520Z,6.82
2023-01-06T10:38:48.656Z,6.05
2023-01-06T10:41:26.654Z,6.75
2023-01-06T10:43:55.248Z,6.98
2023-01-06T10:46:23.455Z,6.16
2023-01-06T10:48:53.183Z,5.56
2023-01-06T10:51:36.697Z,5.09
2023-01-06T10:54:11.151Z,4.80
2023-01-06T10:56:41.153Z,4.65
2023-01-06T10:59:10.961Z,5.02
2023-01-06T11:01:51.086Z,4.80
2023-01-06T11:04:21.633Z,5.36
2023-01-06T11:06:55.999Z,7.18
2023-01-06T11:09:33.259Z,11.87
2023-01-06T11:12:09.890Z,8.73
2023-01-06T11:14:38.869Z,6.69
2023-01-06T11:17:10.984Z,6.92
2023-01-06T11:19:46.027Z,6.51
2023-01-06T11:22:33.220Z,9.81
2023-01-06T11:25:01.425Z,10.15
2023-01-06T11:27:29.380Z,7.91
2023-01-06T11:29:57.287Z,6.19
2023-01-06T11:32:28.962Z,6.41
2023-01-06T11:35:02.100Z,6.87
2023-01-06T11:37:37.711Z,7.38
2023-01-06T11:40:20.561Z,6.82
2023-01-06T11:42:51.726Z,6.25
2023-01-06T11:45:36.367Z,6.48
2023-01-06T11:48:13.384Z,6.16
2023-01-06T11:50:51.348Z,5.73
2023-01-06T11:53:21.347Z,4.49
2023-01-06T11:56:02.514Z,4.19
2023-01-06T11:58:50.802Z,4.62
2023-01-06T12:01:31.883Z,4.57
2023-01-06T12:04:21.024Z,5.59
2023-01-06T12:06:57.869Z,5.76
2023-01-06T12:09:31.242Z,6.37
2023-01-06T12:12:07.900Z,6.40
2023-01-06T12:14:38.675Z,6.27
2023-01-06T12:17:14.843Z,5.75
2023-01-06T12:19:52.445Z,5.51
2023-01-06T12:22:35.809Z,5.02
2023-01-06T12:25:06.192Z,14.81
2023-01-06T12:27:44.295Z,9.85
2023-01-06T12:30:20.809Z,5.96
2023-01-06T12:32:53.140Z,5.45
2023-01-06T12:35:29.394Z,4.69
2023-01-06T12:38:08.239Z,4.48
2023-01-06T12:40:47.197Z,3.87
2023-01-06T12:43:19.146Z,4.06
2023-01-06T12:45:58.053Z,4.09
2023-01-06T12:48:38.471Z,4.07
2023-01-06T12:51:15.651Z,3.90
2023-01-06T12:53:50.743Z,3.14
2023-01-06T12:56:42.641Z,3.16
2023-01-06T12:59:22.878Z,2.97
2023-01-06T13:01:57.294Z,3.34
2023-01-06T13:04:57.149Z,5.36
2023-01-06T13:34:47.876Z,8.30
2023-01-06T13:37:36.114Z,7.80
2023-01-06T13:40:12.688Z,7.87
2023-01-06T13:42:50.648Z,8.08
2023-01-06T13:45:25.562Z,9.47
2023-01-06T13:47:55.683Z,8.55
2023-01-06T13:50:25.466Z,8.30
2023-01-06T13:52:54.717Z,9.77
2023-01-06T13:55:26.953Z,8.71
2023-01-06T13:57:54.933Z,9.05
2023-01-06T14:00:29.152Z,8.36
2023-01-06T14:03:16.321Z,8.62
2023-01-06T14:05:54.499Z,6.62
2023-01-06T14:08:25.529Z,6.80
2023-01-06T14:13:29.369Z,7.37
2023-01-06T14:18:52.370Z,6.72
2023-01-06T14:21:29.710Z,6.38
2023-01-06T14:24:02.650Z,5.45
2023-01-06T14:26:53.611Z,5.39
2023-01-06T14:30:03.684Z,5.69
2023-01-06T14:52:03.618Z,11.40
2023-01-06T14:55:03.648Z,13.44
2023-01-06T14:57:38.044Z,11.93
2023-01-06T15:00:29.759Z,12.57
2023-01-06T15:03:01.440Z,11.66
2023-01-06T15:05:33.819Z,10.52
2023-01-06T15:08:04.905Z,11.17
2023-01-06T15:10:38.368Z,10.61
2023-01-06T15:13:22.518Z,10.70
2023-01-06T15:15:56.393Z,9.95
2023-01-06T15:18:24.533Z,10.18
2023-01-06T15:20:55.515Z,9.65
2023-01-06T15:23:23.641Z,8.86
2023-01-06T15:25:55.498Z,8.23
2023-01-06T15:28:25.907Z,8.38
2023-01-06T15:30:54.256Z,8.64
2023-01-06T15:33:25.062Z,9.01
2023-01-06T15:35:58.363Z,8.33
2023-01-06T15:38:32.106Z,9.05
2023-01-06T15:41:02.391Z,9.64
2023-01-06T15:43:39.745Z,12.47
2023-01-06T15:46:12.135Z,15.55
2023-01-06T15:48:46.940Z,17.26
2023-01-06T15:51:18.567Z,22.81
2023-01-06T15:53:49.564Z,26.87
2023-01-06T15:56:22.167Z,34.37
2023-01-06T15:58:53.790Z,31.73
2023-01-06T16:01:24.213Z,23.68
2023-01-06T16:03:54.954Z,20.51
2023-01-06T16:06:28.525Z,17.22
2023-01-06T16:09:26.839Z,18.93
2023-01-06T16:12:15.340Z,20.60
2023-01-06T16:14:46.711Z,20.77
2023-01-06T16:17:23.283Z,20.01
2023-01-06T16:19:59.889Z,18.00
2023-01-06T16:22:34.180Z,18.51
2023-01-06T16:25:05.931Z,19.14
2023-01-06T16:27:35.370Z,20.74
2023-01-06T16:30:25.365Z,20.69
2023-01-06T16:32:55.009Z,22.37
2023-01-06T16:35:25.110Z,21.50
2023-01-06T16:37:53.571Z,22.66
2023-01-06T16:40:23.598Z,23.00
2023-01-06T16:42:58.350Z,21.92
2023-01-06T16:45:34.725Z,20.48
2023-01-06T16:48:02.642Z,17.78
2023-01-06T16:50:35.269Z,19.72
2023-01-06T16:53:12.899Z,18.91
2023-01-06T16:55:43.303Z,22.09
2023-01-06T16:58:17.909Z,22.04
2023-01-06T17:00:51.629Z,24.56
2023-01-06T17:03:22.069Z,30.22
2023-01-06T17:05:49.990Z,40.50
2023-01-06T17:08:26.555Z,42.68
2023-01-06T17:10:54.546Z,48.59
2023-01-06T17:13:36.034Z,40.08
2023-01-06T17:16:15.436Z,38.26
2023-01-06T17:18:51.254Z,38.03
2023-01-06T17:21:22.076Z,29.66
2023-01-06T17:23:52.173Z,23.91
2023-01-06T17:26:22.058Z,22.53
2023-01-06T17:28:54.390Z,33.53
2023-01-06T17:31:34.564Z,34.53
2023-01-06T17:34:12.984Z,22.20
2023-01-06T17:36:45.623Z,21.52
2023-01-06T17:39:23.810Z,24.07
2023-01-06T17:42:01.688Z,34.30
2023-01-06T17:44:36.768Z,29.36
2023-01-06T17:47:12.392Z,21.67
2023-01-06T17:49:40.306Z,19.31
2023-01-06T17:52:17.411Z,18.09
2023-01-06T17:55:11.479Z,18.85
2023-01-06T17:57:42.148Z,17.05
2023-01-06T18:00:22.966Z,16.36
2023-01-06T18:02:57.112Z,14.28
2023-01-06T18:06:04.802Z,12.32
2023-01-06T18:08:35.923Z,10.27
2023-01-06T18:11:22.838Z,11.08
2023-01-06T18:13:52.117Z,11.44
2023-01-06T18:16:29.678Z,12.26
2023-01-06T18:19:18.972Z,11.19
2023-01-06T18:21:46.915Z,11.37
2023-01-06T18:24:22.463Z,10.37
2023-01-06T18:26:54.291Z,9.86
2023-01-06T18:29:25.625Z,10.31
2023-01-06T18:31:55.665Z,10.66
2023-01-06T18:34:36.257Z,11.19
2023-01-06T18:37:04.970Z,12.17
2023-01-06T18:39:41.682Z,12.29
2023-01-06T18:42:23.535Z,12.67
2023-01-06T18:44:56.640Z,13.27
2023-01-06T18:47:26.178Z,13.84
2023-01-06T18:50:01.912Z,13.75
2023-01-06T18:52:40.051Z,14.22
2023-01-06T18:55:20.881Z,15.06
2023-01-06T18:57:59.392Z,16.31
2023-01-06T19:00:37.227Z,16.02
2023-01-06T19:03:31.320Z,16.09
2023-01-06T19:06:34.792Z,19.18
2023-01-06T19:09:11.787Z,21.47
2023-01-06T19:11:39.935Z,25.95
2023-01-06T19:14:17.370Z,23.71
2023-01-06T19:16:51.773Z,21.84
2023-01-06T19:19:28.815Z,22.12
2023-01-06T19:22:14.499Z,22.13
2023-01-06T19:24:48.163Z,22.41
2023-01-06T19:27:39.141Z,22.92
2023-01-06T19:30:33.996Z,25.83
2023-01-06T19:33:34.163Z,24.65
2023-01-06T19:36:43.176Z,22.56
2023-01-06T19:39:31.515Z,18.97
2023-01-06T19:42:18.163Z,18.64
2023-01-06T19:44:49.418Z,17.66
2023-01-06T19:47:20.265Z,17.79
2023-01-06T19:49:53.109Z,17.38
2023-01-06T19:52:34.184Z,16.67
2023-01-06T19:55:18.757Z,14.16
2023-01-06T19:57:52.519Z,11.61
2023-01-06T20:00:30.417Z,10.95
2023-01-06T20:03:01.748Z,11.12
2023-01-06T20:05:31.622Z,11.56
2023-01-06T20:08:01.450Z,10.51
2023-01-06T20:10:29.347Z,10.08
2023-01-06T20:12:57.240Z,10.97
2023-01-06T20:15:25.102Z,11.81
2023-01-06T20:17:52.975Z,11.67
2023-01-06T20:20:20.910Z,11.99
2023-01-06T20:22:48.807Z,11.80
2023-01-06T20:25:18.288Z,11.48
2023-01-06T20:27:46.170Z,11.35
2023-01-06T20:30:14.160Z,11.14
2023-01-06T20:32:42.140Z,10.92
2023-01-06T20:35:11.243Z,11.07
2023-01-06T20:37:39.904Z,12.48
2023-01-06T20:40:09.054Z,13.57
2023-01-06T20:42:38.357Z,15.60
2023-01-06T20:45:07.431Z,19.58
2023-01-06T20:47:35.330Z,19.15
2023-01-06T20:50:03.260Z,14.78
2023-01-06T20:52:31.166Z,12.47
2023-01-06T20:54:59.036Z,10.53
2023-01-06T20:57:26.910Z,9.74
2023-01-06T20:59:56.202Z,8.54
2023-01-06T21:02:24.227Z,7.08
2023-01-06T21:04:52.163Z,6.83
2023-01-06T21:07:20.130Z,6.36
2023-01-06T21:09:48.075Z,5.82
2023-01-06T21:12:15.953Z,6.19
2023-01-06T21:14:43.869Z,5.85
2023-01-06T21:17:13.113Z,5.29
2023-01-06T21:19:41.179Z,4.88
2023-01-06T21:22:09.183Z,5.20
2023-01-06T21:24:37.068Z,5.10
2023-01-06T21:27:05.004Z,5.15
2023-01-06T21:29:32.843Z,5.38
2023-01-06T21:32:00.745Z,5.45
2023-01-06T21:34:30.010Z,5.19
2023-01-06T21:36:57.903Z,4.99
2023-01-06T21:39:25.862Z,4.73
2023-01-06T21:42:11.486Z,4.47
2023-01-06T21:44:39.398Z,4.94
2023-01-06T21:47:07.386Z,5.31
2023-01-06T21:49:36.800Z,5.35
2023-01-06T21:52:06.364Z,5.25
2023-01-06T21:54:34.357Z,5.48
2023-01-06T21:57:02.261Z,5.78
2023-01-06T21:59:30.539Z,4.95
2023-01-06T22:01:58.517Z,4.76
2023-01-06T22:04:26.513Z,4.46
2023-01-06T22:06:59.940Z,4.54
2023-01-06T22:09:30.956Z,4.31
2023-01-06T22:11:59.926Z,4.34
2023-01-06T22:14:27.924Z,4.79
2023-01-06T22:17:00.491Z,4.99
2023-01-06T22:19:30.681Z,5.14
2023-01-06T22:22:02.057Z,5.47
2023-01-06T22:24:32.940Z,5.99
2023-01-06T22:27:00.883Z,7.81
2023-01-06T22:29:28.888Z,19.12
2023-01-06T22:32:02.431Z,12.27
2023-01-06T22:34:30.371Z,29.19
2023-01-06T22:36:59.682Z,14.57
2023-01-06T22:39:27.570Z,7.70
2023-01-06T22:41:55.500Z,6.76
2023-01-06T22:44:23.375Z,6.74
2023-01-06T22:46:51.204Z,6.96
2023-01-06T22:49:19.099Z,7.29
2023-01-06T22:51:47.010Z,7.29
2023-01-06T22:54:16.344Z,7.68
2023-01-06T22:56:44.335Z,7.41
2023-01-06T22:59:12.217Z,8.47
2023-01-06T23:01:40.244Z,14.92
2023-01-06T23:04:08.179Z,15.68
2023-01-06T23:06:36.055Z,13.73
2023-01-06T23:09:04.014Z,14.68
2023-01-06T23:11:34.599Z,9.06
2023-01-06T23:14:02.455Z,9.72
2023-01-06T23:16:30.743Z,9.09
2023-01-06T23:18:58.688Z,8.98
2023-01-06T23:21:29.907Z,9.26
2023-01-06T23:23:57.950Z,8.86
2023-01-06T23:26:28.193Z,11.60
2023-01-06T23:28:58.835Z,12.51
2023-01-06T23:31:29.835Z,9.97
2023-01-06T23:34:06.469Z,10.07
2023-01-06T23:36:35.562Z,9.70
2023-01-06T23:39:05.266Z,9.71
2023-01-06T23:41:35.313Z,9.65
2023-01-06T23:44:05.403Z,10.21
2023-01-06T23:46:36.548Z,10.69
2023-01-06T23:49:05.082Z,11.24
2023-01-06T23:51:33.990Z,10.39
2023-01-06T23:54:03.174Z,10.19
2023-01-06T23:56:33.282Z,9.93
2023-01-06T23:59:03.080Z,10.20
